sensor_id;sensor_type;location;lat;lon;timestamp;temperature;humidity
33095;DHT22;19459;53.044;8.910;2023-05-07T00:00:37;10.90;99.90
33095;DHT22;19459;53.044;8.910;2023-05-07T00:03:03;10.90;99.90
33095;DHT22;19459;53.044;8.910;2023-05-07T00:05:29;10.90;99.90
33095;DHT22;19459;53.044;8.910;2023-05-07T00:07:55;10.90;99.90
33095;DHT22;19459;53.044;8.910;2023-05-07T00:10:21;10.90;99.90
33095;DHT22;19459;53.044;8.910;2023-05-07T00:12:47;10.80;99.90
33095;DHT22;19459;53.044;8.910;2023-05-07T00:15:12;10.70;99.90
33095;DHT22;19459;53.044;8.910;2023-05-07T00:17:38;10.60;99.90
33095;DHT22;19459;53.044;8.910;2023-05-07T00:20:04;10.60;99.90
33095;DHT22;19459;53.044;8.910;2023-05-07T00:22:31;10.50;99.90
33095;DHT22;19459;53.044;8.910;2023-05-07T00:24:58;10.50;99.90
33095;DHT22;19459;53.044;8.910;2023-05-07T00:27:24;10.50;99.90
33095;DHT22;19459;53.044;8.910;2023-05-07T00:29:50;10.50;99.90
33095;DHT22;19459;53.044;8.910;2023-05-07T00:32:16;10.50;99.90
33095;DHT22;19459;53.044;8.910;2023-05-07T00:34:43;10.40;99.90
33095;DHT22;19459;53.044;8.910;2023-05-07T00:37:09;10.50;99.90
33095;DHT22;19459;53.044;8.910;2023-05-07T00:39:35;10.50;99.90
33095;DHT22;19459;53.044;8.910;2023-05-07T00:42:01;10.40;99.90
33095;DHT22;19459;53.044;8.910;2023-05-07T00:44:28;10.40;99.90
33095;DHT22;19459;53.044;8.910;2023-05-07T00:46:56;10.40;99.90
33095;DHT22;19459;53.044;8.910;2023-05-07T00:49:29;10.30;99.90
33095;DHT22;19459;53.044;8.910;2023-05-07T00:52:01;10.20;99.90
33095;DHT22;19459;53.044;8.910;2023-05-07T00:54:27;10.30;99.90
33095;DHT22;19459;53.044;8.910;2023-05-07T00:56:54;10.30;99.90
33095;DHT22;19459;53.044;8.910;2023-05-07T00:59:20;10.30;99.90
33095;DHT22;19459;53.044;8.910;2023-05-07T01:01:46;10.30;99.90
33095;DHT22;19459;53.044;8.910;2023-05-07T01:04:12;10.30;99.90
33095;DHT22;19459;53.044;8.910;2023-05-07T01:06:38;10.30;99.90
33095;DHT22;19459;53.044;8.910;2023-05-07T01:09:04;10.20;99.90
33095;DHT22;19459;53.044;8.910;2023-05-07T01:11:30;10.10;99.90
33095;DHT22;19459;53.044;8.910;2023-05-07T01:13:57;10.10;99.90
33095;DHT22;19459;53.044;8.910;2023-05-07T01:16:24;10.20;99.90
33095;DHT22;19459;53.044;8.910;2023-05-07T01:18:50;10.20;99.90
33095;DHT22;19459;53.044;8.910;2023-05-07T01:21:17;10.20;99.90
33095;DHT22;19459;53.044;8.910;2023-05-07T01:23:44;10.20;99.90
33095;DHT22;19459;53.044;8.910;2023-05-07T01:26:10;10.10;99.90
33095;DHT22;19459;53.044;8.910;2023-05-07T01:28:36;10.10;99.90
33095;DHT22;19459;53.044;8.910;2023-05-07T01:31:03;10.10;99.90
33095;DHT22;19459;53.044;8.910;2023-05-07T01:33:33;10.10;99.90
33095;DHT22;19459;53.044;8.910;2023-05-07T01:36:00;10.10;99.90
33095;DHT22;19459;53.044;8.910;2023-05-07T01:38:29;10.10;99.90
33095;DHT22;19459;53.044;8.910;2023-05-07T01:40:55;10.10;99.90
33095;DHT22;19459;53.044;8.910;2023-05-07T01:43:21;10.10;99.90
33095;DHT22;19459;53.044;8.910;2023-05-07T01:45:48;10.10;99.90
33095;DHT22;19459;53.044;8.910;2023-05-07T01:48:15;10.00;99.90
33095;DHT22;19459;53.044;8.910;2023-05-07T01:50:41;10.10;99.90
33095;DHT22;19459;53.044;8.910;2023-05-07T01:53:08;10.10;99.90
33095;DHT22;19459;53.044;8.910;2023-05-07T01:55:34;10.00;99.90
33095;DHT22;19459;53.044;8.910;2023-05-07T01:58:02;10.00;99.90
33095;DHT22;19459;53.044;8.910;2023-05-07T02:00:28;10.00;99.90
33095;DHT22;19459;53.044;8.910;2023-05-07T02:02:54;10.10;99.90
33095;DHT22;19459;53.044;8.910;2023-05-07T02:05:20;10.00;99.90
33095;DHT22;19459;53.044;8.910;2023-05-07T02:07:46;9.90;99.90
33095;DHT22;19459;53.044;8.910;2023-05-07T02:10:12;9.90;99.90
33095;DHT22;19459;53.044;8.910;2023-05-07T02:12:37;9.90;99.90
33095;DHT22;19459;53.044;8.910;2023-05-07T02:15:03;9.80;99.90
33095;DHT22;19459;53.044;8.910;2023-05-07T02:17:31;9.80;99.90
33095;DHT22;19459;53.044;8.910;2023-05-07T02:19:58;9.80;99.90
33095;DHT22;19459;53.044;8.910;2023-05-07T02:22:24;9.80;99.90
33095;DHT22;19459;53.044;8.910;2023-05-07T02:24:50;9.80;99.90
33095;DHT22;19459;53.044;8.910;2023-05-07T02:27:16;9.80;99.90
33095;DHT22;19459;53.044;8.910;2023-05-07T02:29:42;9.80;99.90
33095;DHT22;19459;53.044;8.910;2023-05-07T02:32:07;9.80;99.90
33095;DHT22;19459;53.044;8.910;2023-05-07T02:34:33;9.80;99.90
33095;DHT22;19459;53.044;8.910;2023-05-07T02:36:59;9.80;99.90
33095;DHT22;19459;53.044;8.910;2023-05-07T02:39:25;9.80;99.90
33095;DHT22;19459;53.044;8.910;2023-05-07T02:41:51;9.80;99.90
33095;DHT22;19459;53.044;8.910;2023-05-07T02:44:16;9.80;99.90
33095;DHT22;19459;53.044;8.910;2023-05-07T02:46:42;9.80;99.90
33095;DHT22;19459;53.044;8.910;2023-05-07T02:49:08;9.80;99.90
33095;DHT22;19459;53.044;8.910;2023-05-07T02:51:33;9.90;99.90
33095;DHT22;19459;53.044;8.910;2023-05-07T02:53:59;9.90;99.90
33095;DHT22;19459;53.044;8.910;2023-05-07T02:56:26;9.90;99.90
33095;DHT22;19459;53.044;8.910;2023-05-07T02:58:52;9.90;99.90
33095;DHT22;19459;53.044;8.910;2023-05-07T03:01:18;9.90;99.90
33095;DHT22;19459;53.044;8.910;2023-05-07T03:03:44;9.90;99.90
33095;DHT22;19459;53.044;8.910;2023-05-07T03:06:09;9.90;99.90
33095;DHT22;19459;53.044;8.910;2023-05-07T03:08:35;9.90;99.90
33095;DHT22;19459;53.044;8.910;2023-05-07T03:11:02;9.90;99.90
33095;DHT22;19459;53.044;8.910;2023-05-07T03:13:28;9.90;99.90
33095;DHT22;19459;53.044;8.910;2023-05-07T03:15:53;9.90;99.90
33095;DHT22;19459;53.044;8.910;2023-05-07T03:18:19;9.80;99.90
33095;DHT22;19459;53.044;8.910;2023-05-07T03:20:45;9.80;99.90
33095;DHT22;19459;53.044;8.910;2023-05-07T03:23:11;9.80;99.90
33095;DHT22;19459;53.044;8.910;2023-05-07T03:25:37;9.70;99.90
33095;DHT22;19459;53.044;8.910;2023-05-07T03:28:03;9.70;99.90
33095;DHT22;19459;53.044;8.910;2023-05-07T03:30:28;9.70;99.90
33095;DHT22;19459;53.044;8.910;2023-05-07T03:32:55;9.70;99.90
33095;DHT22;19459;53.044;8.910;2023-05-07T03:35:20;9.70;99.90
33095;DHT22;19459;53.044;8.910;2023-05-07T03:37:46;9.70;99.90
33095;DHT22;19459;53.044;8.910;2023-05-07T03:40:12;9.70;99.90
33095;DHT22;19459;53.044;8.910;2023-05-07T03:42:38;9.70;99.90
33095;DHT22;19459;53.044;8.910;2023-05-07T03:45:04;9.80;99.90
33095;DHT22;19459;53.044;8.910;2023-05-07T03:47:30;9.70;99.90
33095;DHT22;19459;53.044;8.910;2023-05-07T03:49:56;9.80;99.90
33095;DHT22;19459;53.044;8.910;2023-05-07T03:52:22;9.80;99.90
33095;DHT22;19459;53.044;8.910;2023-05-07T03:54:52;9.80;99.90
33095;DHT22;19459;53.044;8.910;2023-05-07T03:57:18;9.80;99.90
33095;DHT22;19459;53.044;8.910;2023-05-07T03:59:45;9.80;99.90
33095;DHT22;19459;53.044;8.910;2023-05-07T04:02:11;9.80;99.90
33095;DHT22;19459;53.044;8.910;2023-05-07T04:04:36;9.80;99.90
33095;DHT22;19459;53.044;8.910;2023-05-07T04:07:02;9.90;99.90
33095;DHT22;19459;53.044;8.910;2023-05-07T04:09:28;9.90;99.90
33095;DHT22;19459;53.044;8.910;2023-05-07T04:11:54;9.90;99.90
33095;DHT22;19459;53.044;8.910;2023-05-07T04:14:20;9.90;99.90
33095;DHT22;19459;53.044;8.910;2023-05-07T04:16:45;9.80;99.90
33095;DHT22;19459;53.044;8.910;2023-05-07T04:19:11;9.80;99.90
33095;DHT22;19459;53.044;8.910;2023-05-07T04:21:37;9.90;99.90
33095;DHT22;19459;53.044;8.910;2023-05-07T04:24:03;9.90;99.90
33095;DHT22;19459;53.044;8.910;2023-05-07T04:26:29;9.90;99.90
33095;DHT22;19459;53.044;8.910;2023-05-07T04:28:55;9.90;99.90
33095;DHT22;19459;53.044;8.910;2023-05-07T04:31:23;10.00;99.90
33095;DHT22;19459;53.044;8.910;2023-05-07T04:33:48;9.90;99.90
33095;DHT22;19459;53.044;8.910;2023-05-07T04:36:14;9.90;99.90
33095;DHT22;19459;53.044;8.910;2023-05-07T04:38:40;9.90;99.90
33095;DHT22;19459;53.044;8.910;2023-05-07T04:41:06;9.90;99.90
33095;DHT22;19459;53.044;8.910;2023-05-07T04:43:34;9.90;99.90
33095;DHT22;19459;53.044;8.910;2023-05-07T04:46:00;9.90;99.90
33095;DHT22;19459;53.044;8.910;2023-05-07T04:48:26;9.90;99.90
33095;DHT22;19459;53.044;8.910;2023-05-07T04:50:52;10.00;99.90
33095;DHT22;19459;53.044;8.910;2023-05-07T04:53:19;10.00;99.90
33095;DHT22;19459;53.044;8.910;2023-05-07T04:55:45;10.00;99.90
33095;DHT22;19459;53.044;8.910;2023-05-07T04:58:11;9.90;99.90
33095;DHT22;19459;53.044;8.910;2023-05-07T05:00:38;10.00;99.90
33095;DHT22;19459;53.044;8.910;2023-05-07T05:03:05;10.00;99.90
33095;DHT22;19459;53.044;8.910;2023-05-07T05:05:32;10.00;99.90
33095;DHT22;19459;53.044;8.910;2023-05-07T05:07:57;10.00;99.90
33095;DHT22;19459;53.044;8.910;2023-05-07T05:10:23;10.00;99.90
33095;DHT22;19459;53.044;8.910;2023-05-07T05:12:50;10.00;99.90
33095;DHT22;19459;53.044;8.910;2023-05-07T05:15:15;10.00;99.90
33095;DHT22;19459;53.044;8.910;2023-05-07T05:17:41;10.00;99.90
33095;DHT22;19459;53.044;8.910;2023-05-07T05:20:07;10.10;99.90
33095;DHT22;19459;53.044;8.910;2023-05-07T05:22:34;10.10;99.90
33095;DHT22;19459;53.044;8.910;2023-05-07T05:25:00;10.10;99.90
33095;DHT22;19459;53.044;8.910;2023-05-07T05:27:26;10.20;99.90
33095;DHT22;19459;53.044;8.910;2023-05-07T05:29:52;10.20;99.90
33095;DHT22;19459;53.044;8.910;2023-05-07T05:32:17;10.20;99.90
33095;DHT22;19459;53.044;8.910;2023-05-07T05:34:43;10.20;99.90
33095;DHT22;19459;53.044;8.910;2023-05-07T05:37:09;10.20;99.90
33095;DHT22;19459;53.044;8.910;2023-05-07T05:39:35;10.20;99.90
33095;DHT22;19459;53.044;8.910;2023-05-07T05:42:02;10.20;99.90
33095;DHT22;19459;53.044;8.910;2023-05-07T05:44:27;10.20;99.90
33095;DHT22;19459;53.044;8.910;2023-05-07T05:46:53;10.20;99.90
33095;DHT22;19459;53.044;8.910;2023-05-07T05:49:24;10.20;99.90
33095;DHT22;19459;53.044;8.910;2023-05-07T05:51:50;10.20;99.90
33095;DHT22;19459;53.044;8.910;2023-05-07T05:54:16;10.20;99.90
33095;DHT22;19459;53.044;8.910;2023-05-07T05:56:42;10.20;99.90
33095;DHT22;19459;53.044;8.910;2023-05-07T05:59:08;10.20;99.90
33095;DHT22;19459;53.044;8.910;2023-05-07T06:01:34;10.30;99.90
33095;DHT22;19459;53.044;8.910;2023-05-07T06:04:00;10.30;99.90
33095;DHT22;19459;53.044;8.910;2023-05-07T06:06:26;10.30;99.90
33095;DHT22;19459;53.044;8.910;2023-05-07T06:08:52;10.30;99.90
33095;DHT22;19459;53.044;8.910;2023-05-07T06:11:18;10.40;99.90
33095;DHT22;19459;53.044;8.910;2023-05-07T06:13:44;10.30;99.90
33095;DHT22;19459;53.044;8.910;2023-05-07T06:16:09;10.30;99.90
33095;DHT22;19459;53.044;8.910;2023-05-07T06:18:35;10.30;99.90
33095;DHT22;19459;53.044;8.910;2023-05-07T06:21:01;10.30;99.90
33095;DHT22;19459;53.044;8.910;2023-05-07T06:23:27;10.30;99.90
33095;DHT22;19459;53.044;8.910;2023-05-07T06:25:53;10.30;99.90
33095;DHT22;19459;53.044;8.910;2023-05-07T06:28:19;10.30;99.90
33095;DHT22;19459;53.044;8.910;2023-05-07T06:30:44;10.30;99.90
33095;DHT22;19459;53.044;8.910;2023-05-07T06:33:10;10.30;99.90
33095;DHT22;19459;53.044;8.910;2023-05-07T06:35:36;10.30;99.90
33095;DHT22;19459;53.044;8.910;2023-05-07T06:38:02;10.30;99.90
33095;DHT22;19459;53.044;8.910;2023-05-07T06:40:28;10.30;99.90
33095;DHT22;19459;53.044;8.910;2023-05-07T06:42:53;10.30;99.90
33095;DHT22;19459;53.044;8.910;2023-05-07T06:45:19;10.40;99.90
33095;DHT22;19459;53.044;8.910;2023-05-07T06:47:45;10.40;99.90
33095;DHT22;19459;53.044;8.910;2023-05-07T06:50:11;10.40;99.90
33095;DHT22;19459;53.044;8.910;2023-05-07T06:52:37;10.50;99.90
33095;DHT22;19459;53.044;8.910;2023-05-07T06:55:03;10.50;99.90
33095;DHT22;19459;53.044;8.910;2023-05-07T06:57:29;10.60;99.90
33095;DHT22;19459;53.044;8.910;2023-05-07T06:59:55;10.60;99.90
33095;DHT22;19459;53.044;8.910;2023-05-07T07:02:21;10.60;99.90
33095;DHT22;19459;53.044;8.910;2023-05-07T07:04:47;10.70;99.90
33095;DHT22;19459;53.044;8.910;2023-05-07T07:07:13;10.80;99.90
33095;DHT22;19459;53.044;8.910;2023-05-07T07:09:38;10.80;99.90
33095;DHT22;19459;53.044;8.910;2023-05-07T07:12:04;10.90;99.90
33095;DHT22;19459;53.044;8.910;2023-05-07T07:14:30;10.90;99.90
33095;DHT22;19459;53.044;8.910;2023-05-07T07:16:56;11.00;99.90
33095;DHT22;19459;53.044;8.910;2023-05-07T07:19:22;10.90;99.90
33095;DHT22;19459;53.044;8.910;2023-05-07T07:21:47;11.00;99.90
33095;DHT22;19459;53.044;8.910;2023-05-07T07:24:14;11.10;99.90
33095;DHT22;19459;53.044;8.910;2023-05-07T07:26:44;11.00;99.90
33095;DHT22;19459;53.044;8.910;2023-05-07T07:29:10;11.00;99.90
33095;DHT22;19459;53.044;8.910;2023-05-07T07:31:36;11.00;99.90
33095;DHT22;19459;53.044;8.910;2023-05-07T07:34:01;11.00;99.90
33095;DHT22;19459;53.044;8.910;2023-05-07T07:36:27;11.10;99.90
33095;DHT22;19459;53.044;8.910;2023-05-07T07:38:53;11.20;99.90
33095;DHT22;19459;53.044;8.910;2023-05-07T07:41:19;11.30;99.90
33095;DHT22;19459;53.044;8.910;2023-05-07T07:43:45;11.30;99.90
33095;DHT22;19459;53.044;8.910;2023-05-07T07:46:14;11.40;99.90
33095;DHT22;19459;53.044;8.910;2023-05-07T07:48:40;11.40;99.90
33095;DHT22;19459;53.044;8.910;2023-05-07T07:51:06;11.40;99.90
33095;DHT22;19459;53.044;8.910;2023-05-07T07:53:32;11.40;99.90
33095;DHT22;19459;53.044;8.910;2023-05-07T07:55:58;11.50;99.90
33095;DHT22;19459;53.044;8.910;2023-05-07T07:58:23;11.60;99.90
33095;DHT22;19459;53.044;8.910;2023-05-07T08:00:50;11.80;99.90
33095;DHT22;19459;53.044;8.910;2023-05-07T08:03:16;11.90;99.90
33095;DHT22;19459;53.044;8.910;2023-05-07T08:05:42;12.00;99.90
33095;DHT22;19459;53.044;8.910;2023-05-07T08:08:09;12.20;99.90
33095;DHT22;19459;53.044;8.910;2023-05-07T08:10:35;12.10;99.90
33095;DHT22;19459;53.044;8.910;2023-05-07T08:13:03;12.00;99.90
33095;DHT22;19459;53.044;8.910;2023-05-07T08:15:30;12.00;99.90
33095;DHT22;19459;53.044;8.910;2023-05-07T08:17:56;12.00;99.90
33095;DHT22;19459;53.044;8.910;2023-05-07T08:20:23;12.00;99.90
33095;DHT22;19459;53.044;8.910;2023-05-07T08:22:49;11.90;99.90
33095;DHT22;19459;53.044;8.910;2023-05-07T08:25:15;12.00;99.90
33095;DHT22;19459;53.044;8.910;2023-05-07T08:27:40;11.90;99.90
33095;DHT22;19459;53.044;8.910;2023-05-07T08:30:07;12.00;99.90
33095;DHT22;19459;53.044;8.910;2023-05-07T08:32:33;12.20;99.90
33095;DHT22;19459;53.044;8.910;2023-05-07T08:34:59;12.20;99.90
33095;DHT22;19459;53.044;8.910;2023-05-07T08:37:26;12.20;99.90
33095;DHT22;19459;53.044;8.910;2023-05-07T08:39:51;12.30;99.90
33095;DHT22;19459;53.044;8.910;2023-05-07T08:42:17;12.30;99.90
33095;DHT22;19459;53.044;8.910;2023-05-07T08:44:45;12.30;99.90
33095;DHT22;19459;53.044;8.910;2023-05-07T08:47:14;12.40;99.90
33095;DHT22;19459;53.044;8.910;2023-05-07T08:49:40;12.50;99.90
33095;DHT22;19459;53.044;8.910;2023-05-07T08:52:06;12.50;99.90
33095;DHT22;19459;53.044;8.910;2023-05-07T08:54:32;12.60;99.90
33095;DHT22;19459;53.044;8.910;2023-05-07T08:56:59;12.60;99.90
33095;DHT22;19459;53.044;8.910;2023-05-07T08:59:25;12.80;99.90
33095;DHT22;19459;53.044;8.910;2023-05-07T09:01:51;12.90;99.90
33095;DHT22;19459;53.044;8.910;2023-05-07T09:04:16;12.80;99.90
33095;DHT22;19459;53.044;8.910;2023-05-07T09:06:42;13.00;99.90
33095;DHT22;19459;53.044;8.910;2023-05-07T09:09:08;13.10;99.90
33095;DHT22;19459;53.044;8.910;2023-05-07T09:11:34;13.30;99.90
33095;DHT22;19459;53.044;8.910;2023-05-07T09:14:00;13.30;99.90
33095;DHT22;19459;53.044;8.910;2023-05-07T09:16:30;13.40;99.90
33095;DHT22;19459;53.044;8.910;2023-05-07T09:18:58;13.50;99.90
33095;DHT22;19459;53.044;8.910;2023-05-07T09:21:25;13.80;99.90
33095;DHT22;19459;53.044;8.910;2023-05-07T09:23:52;13.90;99.90
33095;DHT22;19459;53.044;8.910;2023-05-07T09:26:24;13.80;99.90
33095;DHT22;19459;53.044;8.910;2023-05-07T09:28:51;13.40;99.90
33095;DHT22;19459;53.044;8.910;2023-05-07T09:31:17;13.20;99.90
33095;DHT22;19459;53.044;8.910;2023-05-07T09:33:43;13.30;99.90
33095;DHT22;19459;53.044;8.910;2023-05-07T09:36:10;13.50;99.90
33095;DHT22;19459;53.044;8.910;2023-05-07T09:38:37;13.60;99.90
33095;DHT22;19459;53.044;8.910;2023-05-07T09:41:11;13.70;99.90
33095;DHT22;19459;53.044;8.910;2023-05-07T09:43:39;13.80;99.90
33095;DHT22;19459;53.044;8.910;2023-05-07T09:46:15;13.90;99.90
33095;DHT22;19459;53.044;8.910;2023-05-07T09:48:43;13.70;99.90
33095;DHT22;19459;53.044;8.910;2023-05-07T09:53:52;13.80;99.90
33095;DHT22;19459;53.044;8.910;2023-05-07T09:56:19;13.90;99.90
33095;DHT22;19459;53.044;8.910;2023-05-07T09:58:46;14.00;99.90
33095;DHT22;19459;53.044;8.910;2023-05-07T10:01:13;14.20;99.90
33095;DHT22;19459;53.044;8.910;2023-05-07T10:03:43;14.20;99.90
33095;DHT22;19459;53.044;8.910;2023-05-07T10:06:10;14.20;99.90
33095;DHT22;19459;53.044;8.910;2023-05-07T10:08:36;14.10;99.90
33095;DHT22;19459;53.044;8.910;2023-05-07T10:11:05;13.80;99.90
33095;DHT22;19459;53.044;8.910;2023-05-07T10:13:34;13.80;99.90
33095;DHT22;19459;53.044;8.910;2023-05-07T10:16:04;13.70;99.90
33095;DHT22;19459;53.044;8.910;2023-05-07T10:18:31;13.70;99.90
33095;DHT22;19459;53.044;8.910;2023-05-07T10:21:20;13.70;99.90
33095;DHT22;19459;53.044;8.910;2023-05-07T10:23:53;13.80;99.90
33095;DHT22;19459;53.044;8.910;2023-05-07T10:26:24;13.80;99.90
33095;DHT22;19459;53.044;8.910;2023-05-07T10:28:54;13.80;99.90
33095;DHT22;19459;53.044;8.910;2023-05-07T10:34:10;14.20;99.90
33095;DHT22;19459;53.044;8.910;2023-05-07T10:36:37;14.20;99.90
33095;DHT22;19459;53.044;8.910;2023-05-07T10:39:05;14.10;99.90
33095;DHT22;19459;53.044;8.910;2023-05-07T10:41:31;14.10;99.90
33095;DHT22;19459;53.044;8.910;2023-05-07T10:43:57;14.10;99.90
33095;DHT22;19459;53.044;8.910;2023-05-07T10:46:26;14.30;99.90
33095;DHT22;19459;53.044;8.910;2023-05-07T10:49:12;14.40;99.90
33095;DHT22;19459;53.044;8.910;2023-05-07T10:51:39;14.50;99.90
33095;DHT22;19459;53.044;8.910;2023-05-07T10:56:38;14.70;99.90
33095;DHT22;19459;53.044;8.910;2023-05-07T10:59:29;14.80;99.90
33095;DHT22;19459;53.044;8.910;2023-05-07T11:02:02;14.80;99.90
33095;DHT22;19459;53.044;8.910;2023-05-07T11:04:29;14.80;99.90
33095;DHT22;19459;53.044;8.910;2023-05-07T11:15:35;15.10;99.90
33095;DHT22;19459;53.044;8.910;2023-05-07T11:18:02;15.20;99.90
33095;DHT22;19459;53.044;8.910;2023-05-07T11:21:00;15.10;99.90
33095;DHT22;19459;53.044;8.910;2023-05-07T11:26:03;15.20;99.90
33095;DHT22;19459;53.044;8.910;2023-05-07T11:28:31;15.30;99.90
33095;DHT22;19459;53.044;8.910;2023-05-07T11:30:58;15.50;99.90
33095;DHT22;19459;53.044;8.910;2023-05-07T11:33:25;15.60;99.90
33095;DHT22;19459;53.044;8.910;2023-05-07T11:35:53;16.20;99.90
33095;DHT22;19459;53.044;8.910;2023-05-07T11:38:19;17.00;99.90
33095;DHT22;19459;53.044;8.910;2023-05-07T11:40:52;17.30;99.90
33095;DHT22;19459;53.044;8.910;2023-05-07T11:43:24;17.20;99.90
33095;DHT22;19459;53.044;8.910;2023-05-07T11:45:50;16.90;99.90
33095;DHT22;19459;53.044;8.910;2023-05-07T11:48:16;16.70;99.90
33095;DHT22;19459;53.044;8.910;2023-05-07T11:53:20;16.80;99.90
33095;DHT22;19459;53.044;8.910;2023-05-07T11:55:52;16.90;99.90
33095;DHT22;19459;53.044;8.910;2023-05-07T11:58:23;16.90;99.90
33095;DHT22;19459;53.044;8.910;2023-05-07T12:00:54;16.90;99.90
33095;DHT22;19459;53.044;8.910;2023-05-07T12:03:22;16.90;99.90
33095;DHT22;19459;53.044;8.910;2023-05-07T12:05:48;16.80;99.90
33095;DHT22;19459;53.044;8.910;2023-05-07T12:08:18;16.60;99.90
33095;DHT22;19459;53.044;8.910;2023-05-07T12:10:45;16.20;99.90
33095;DHT22;19459;53.044;8.910;2023-05-07T12:15:42;16.40;99.90
33095;DHT22;19459;53.044;8.910;2023-05-07T12:18:08;16.40;99.90
33095;DHT22;19459;53.044;8.910;2023-05-07T12:20:36;16.40;99.90
33095;DHT22;19459;53.044;8.910;2023-05-07T12:23:02;16.40;99.90
33095;DHT22;19459;53.044;8.910;2023-05-07T12:25:41;16.40;99.90
33095;DHT22;19459;53.044;8.910;2023-05-07T12:28:18;16.40;99.90
33095;DHT22;19459;53.044;8.910;2023-05-07T12:30:46;16.40;99.90
33095;DHT22;19459;53.044;8.910;2023-05-07T12:33:23;16.40;99.90
33095;DHT22;19459;53.044;8.910;2023-05-07T12:35:50;16.20;99.90
33095;DHT22;19459;53.044;8.910;2023-05-07T12:38:17;16.20;99.90
33095;DHT22;19459;53.044;8.910;2023-05-07T12:40:52;16.20;99.90
33095;DHT22;19459;53.044;8.910;2023-05-07T12:43:27;16.00;99.90
33095;DHT22;19459;53.044;8.910;2023-05-07T12:45:55;15.70;99.90
33095;DHT22;19459;53.044;8.910;2023-05-07T12:48:23;15.70;99.90
33095;DHT22;19459;53.044;8.910;2023-05-07T12:50:53;15.70;99.90
33095;DHT22;19459;53.044;8.910;2023-05-07T12:53:21;15.80;99.90
33095;DHT22;19459;53.044;8.910;2023-05-07T12:55:49;15.60;99.90
33095;DHT22;19459;53.044;8.910;2023-05-07T12:58:23;15.70;99.90
33095;DHT22;19459;53.044;8.910;2023-05-07T13:00:58;15.70;99.90
33095;DHT22;19459;53.044;8.910;2023-05-07T13:03:33;15.60;99.90
33095;DHT22;19459;53.044;8.910;2023-05-07T13:06:08;15.70;99.90
33095;DHT22;19459;53.044;8.910;2023-05-07T13:08:37;15.80;99.90
33095;DHT22;19459;53.044;8.910;2023-05-07T13:11:11;16.00;99.90
33095;DHT22;19459;53.044;8.910;2023-05-07T13:13:38;16.00;99.90
33095;DHT22;19459;53.044;8.910;2023-05-07T13:16:06;16.20;99.90
33095;DHT22;19459;53.044;8.910;2023-05-07T13:18:34;16.40;99.90
33095;DHT22;19459;53.044;8.910;2023-05-07T13:21:01;16.60;99.90
33095;DHT22;19459;53.044;8.910;2023-05-07T13:23:27;16.80;99.90
33095;DHT22;19459;53.044;8.910;2023-05-07T13:25:54;17.00;99.90
33095;DHT22;19459;53.044;8.910;2023-05-07T13:28:21;17.40;99.90
33095;DHT22;19459;53.044;8.910;2023-05-07T13:30:48;17.70;99.90
33095;DHT22;19459;53.044;8.910;2023-05-07T13:33:14;18.00;99.90
33095;DHT22;19459;53.044;8.910;2023-05-07T13:35:57;18.30;99.90
33095;DHT22;19459;53.044;8.910;2023-05-07T13:39:57;18.10;99.90
33095;DHT22;19459;53.044;8.910;2023-05-07T13:43:42;17.90;99.90
33095;DHT22;19459;53.044;8.910;2023-05-07T13:46:08;18.30;99.90
33095;DHT22;19459;53.044;8.910;2023-05-07T13:48:34;18.40;99.90
33095;DHT22;19459;53.044;8.910;2023-05-07T13:51:00;19.00;99.90
33095;DHT22;19459;53.044;8.910;2023-05-07T13:53:25;19.40;99.90
33095;DHT22;19459;53.044;8.910;2023-05-07T13:55:52;19.50;99.90
33095;DHT22;19459;53.044;8.910;2023-05-07T13:58:18;19.60;99.90
33095;DHT22;19459;53.044;8.910;2023-05-07T14:00:43;19.60;99.90
33095;DHT22;19459;53.044;8.910;2023-05-07T14:03:09;19.00;99.80
33095;DHT22;19459;53.044;8.910;2023-05-07T14:05:35;18.80;99.70
33095;DHT22;19459;53.044;8.910;2023-05-07T14:08:01;18.60;99.90
33095;DHT22;19459;53.044;8.910;2023-05-07T14:10:27;18.60;99.90
33095;DHT22;19459;53.044;8.910;2023-05-07T14:12:53;18.60;99.90
33095;DHT22;19459;53.044;8.910;2023-05-07T14:15:19;18.10;99.90
33095;DHT22;19459;53.044;8.910;2023-05-07T14:17:45;18.10;99.90
33095;DHT22;19459;53.044;8.910;2023-05-07T14:20:12;18.30;99.90
33095;DHT22;19459;53.044;8.910;2023-05-07T14:22:38;18.40;99.90
33095;DHT22;19459;53.044;8.910;2023-05-07T14:25:04;18.60;99.90
33095;DHT22;19459;53.044;8.910;2023-05-07T14:27:30;18.40;99.90
33095;DHT22;19459;53.044;8.910;2023-05-07T14:29:56;18.30;99.90
33095;DHT22;19459;53.044;8.910;2023-05-07T14:32:22;18.10;99.90
33095;DHT22;19459;53.044;8.910;2023-05-07T14:34:47;18.00;99.90
33095;DHT22;19459;53.044;8.910;2023-05-07T14:37:13;18.00;99.90
33095;DHT22;19459;53.044;8.910;2023-05-07T14:39:39;18.20;99.90
33095;DHT22;19459;53.044;8.910;2023-05-07T14:42:05;18.50;99.90
33095;DHT22;19459;53.044;8.910;2023-05-07T14:44:36;18.80;99.90
33095;DHT22;19459;53.044;8.910;2023-05-07T14:47:01;18.50;99.90
33095;DHT22;19459;53.044;8.910;2023-05-07T14:49:30;18.70;99.90
33095;DHT22;19459;53.044;8.910;2023-05-07T14:51:57;18.50;99.90
33095;DHT22;19459;53.044;8.910;2023-05-07T14:54:26;18.80;99.90
33095;DHT22;19459;53.044;8.910;2023-05-07T14:56:52;18.70;99.90
33095;DHT22;19459;53.044;8.910;2023-05-07T14:59:21;18.80;99.90
33095;DHT22;19459;53.044;8.910;2023-05-07T15:01:47;19.20;99.90
33095;DHT22;19459;53.044;8.910;2023-05-07T15:04:13;19.40;99.90
33095;DHT22;19459;53.044;8.910;2023-05-07T15:06:39;19.50;99.60
33095;DHT22;19459;53.044;8.910;2023-05-07T15:09:05;19.10;99.30
33095;DHT22;19459;53.044;8.910;2023-05-07T15:11:31;18.80;99.90
33095;DHT22;19459;53.044;8.910;2023-05-07T15:13:57;18.20;99.50
33095;DHT22;19459;53.044;8.910;2023-05-07T15:16:22;17.90;99.90
33095;DHT22;19459;53.044;8.910;2023-05-07T15:18:48;17.90;99.90
33095;DHT22;19459;53.044;8.910;2023-05-07T15:21:14;18.10;99.90
33095;DHT22;19459;53.044;8.910;2023-05-07T15:23:40;18.30;99.90
33095;DHT22;19459;53.044;8.910;2023-05-07T15:26:06;18.00;99.90
33095;DHT22;19459;53.044;8.910;2023-05-07T15:28:33;17.80;99.90
33095;DHT22;19459;53.044;8.910;2023-05-07T15:30:59;17.40;99.90
33095;DHT22;19459;53.044;8.910;2023-05-07T15:33:25;17.50;99.90
33095;DHT22;19459;53.044;8.910;2023-05-07T15:35:51;17.60;99.90
33095;DHT22;19459;53.044;8.910;2023-05-07T15:38:20;17.70;99.90
33095;DHT22;19459;53.044;8.910;2023-05-07T15:40:45;17.80;99.90
33095;DHT22;19459;53.044;8.910;2023-05-07T15:43:11;17.80;99.90
33095;DHT22;19459;53.044;8.910;2023-05-07T15:45:41;17.80;99.90
33095;DHT22;19459;53.044;8.910;2023-05-07T15:48:08;17.50;99.90
33095;DHT22;19459;53.044;8.910;2023-05-07T15:50:36;17.40;99.90
33095;DHT22;19459;53.044;8.910;2023-05-07T15:53:02;17.40;99.90
33095;DHT22;19459;53.044;8.910;2023-05-07T15:55:30;17.60;99.90
33095;DHT22;19459;53.044;8.910;2023-05-07T15:57:56;17.80;99.90